Hauptseite
METAR-TAF:

METAR-TAF

Flughäfen :

Internationaler Flughafen Golosón

La Ceiba, Honduras

Breite: 15-44N, Länge: 086-52W, Höhe: 3 m

Beobachtung

Neuester Wetterbericht von vor 48 Minuten, um 09:00 UTC
Windstille
Temperatur 24°C
Luftfeuchtigkeit 94%
Luftdruck 1014 hPa
Sichtweite 10 km oder mehr
Leicht bewölkt in der Höhe von 4000 ft

METAR: MHLC 240900Z 00000KT 9999 FEW040 24/23 Q1014 A2994 NOSIG

Zeit: 03:48 (09:48 UTC)

Prognose

Neuester Wetterbericht von vor 5 Stunden und 48 Minuten, um 04:00 UTC
Gültige Prognose vom 24 um 06 UTC bis 25 um 06 UTC
Wind 3 kt aus unterschiedlichen Richtungen
Sichtweite 10 km oder mehr
Leicht bewölkt in der Höhe von 3200 ft
Übergehend zu
vom 24 um 16 UTC bis 24 um 18 UTC
Wind 14 kt aus Ost/Nordost
Aufgelockert bewölkt in der Höhe von 3000 ft, Towering cumulus.

TAF: MHLC 240400Z 2406/2506 VRB03KT 9999 FEW032 TX32/2419Z TN24/2412Z BECMG 2416/2418 06014KT SCT030TCU

Wetterbeobachtungen und Prognosen von mehr als 4000 Flughäfen (METAR und TAF Bericht).

Die verfügbaren Stationen werden durch gelbe und rote Markierungen auf der Karte dargestellt.

Führen Sie die Maus auf sie, um den Namen der Station zu sehen.

Darauf klicken, um die Beobachtung von Wetterbeobachtungen und Prognosen zu sehen.

Um die Karte zu ändern : klicken Sie auf den grünen Tasten mit einem schwarzen Kreuz Zum Vergrößern, auf den grünen Button mit einem Gedankenstrich zu verkleinern, oder auf die grünen Pfeile für benachbarte Karten.


METAR-TAF: